Aral Moreira, Brazil
Current Conditions -  °F | °C
As of 9:00 PM on Friday 28 Nov 2014 (Local Time) from SBCG Reporting Station
Thunderstorm Thunderstorm  
Wind Chill: 70°   Ceiling: Unl
Heat Index: 70°   Visibility: 6mi
Dew Point: 68°   Wind: 7mph
Humidity: 94%   Direction: 170°S
Pressure: 29.94"   Gusts: NA
Location:  22.93°S, 55.64°W
Report Text: SBCG 290000Z 17006KT 9999 VCTS FEW030 FEW040CB 21/20 Q1014
Loading
Personal Weather Stations






























Interactive Weather Map New forecast layout! Learn more

10-Day Weather Forecast

Advertisements
Track Severe Weather on mobile